Time;durP1;ratioP1;P1;durP2;ratioP2;P2;SDS_P1;SDS_P2;PMS_P1;PMS_P2;Temp;Humidity;BMP_temperature;BMP_pressure;BME280_temperature;BME280_humidity;BME280_pressure;Samples;Min_cycle;Max_cycle;Signal;HPM_P1;HPM_P2
2023/05/17 00:00:25;;;;;;;0.10;0.10;;;;;;;12.91;53.09;100314.25;5093420;27;20051;-72
2023/05/17 00:02:51;;;;;;;0.10;0.10;;;;;;;12.90;53.23;100321.66;5125211;27;20088;-73
2023/05/17 00:05:17;;;;;;;0.10;0.10;;;;;;;12.85;53.64;100329.91;5099806;27;20054;-72
2023/05/17 00:07:46;;;;;;;0.10;0.10;;;;;;;12.80;53.92;100318.97;5123957;27;20050;-74
2023/05/17 00:10:12;;;;;;;0.10;0.10;;;;;;;12.76;54.26;100323.31;5090043;27;20137;-74
2023/05/17 00:12:40;;;;;;;0.10;0.10;;;;;;;12.71;54.65;100328.84;5086836;28;20047;-74
2023/05/17 00:15:06;;;;;;;0.10;0.10;;;;;;;12.65;54.66;100327.19;5125013;27;20066;-74
2023/05/17 00:17:32;;;;;;;0.10;0.10;;;;;;;12.60;54.76;100326.09;5133682;27;20051;-74
2023/05/17 00:19:59;;;;;;;0.10;0.10;;;;;;;12.58;54.91;100330.22;5091085;27;20146;-74
2023/05/17 00:22:25;;;;;;;0.10;0.10;;;;;;;12.55;54.69;100334.34;5111746;27;20496;-74
2023/05/17 00:24:51;;;;;;;0.10;0.10;;;;;;;12.52;54.90;100323.91;5089492;27;20055;-74
2023/05/17 00:27:17;;;;;;;0.10;0.10;;;;;;;12.50;55.17;100328.03;5108661;27;20134;-74
2023/05/17 00:29:45;;;;;;;0.10;0.10;;;;;;;12.45;55.23;100339.81;5109931;27;20394;-74
2023/05/17 00:32:11;;;;;;;0.10;0.10;;;;;;;12.45;55.12;100342.56;5102891;27;20100;-74
2023/05/17 00:34:37;;;;;;;0.10;0.10;;;;;;;12.42;55.23;100340.38;5107735;27;20055;-74
2023/05/17 00:37:04;;;;;;;0.10;0.10;;;;;;;12.39;55.57;100347.22;5093980;27;20102;-75
2023/05/17 00:39:30;;;;;;;0.10;0.10;;;;;;;12.38;55.30;100347.50;5138055;27;20206;-74
2023/05/17 00:41:57;;;;;;;0.10;0.10;;;;;;;12.36;55.44;100345.03;5139888;27;20493;-74
2023/05/17 00:44:23;;;;;;;0.10;0.10;;;;;;;12.32;55.56;100347.47;5134526;27;20051;-74
2023/05/17 00:46:51;;;;;;;0.20;0.20;;;;;;;12.30;55.70;100343.38;5144620;27;20043;-74
2023/05/17 00:49:18;;;;;;;0.10;0.10;;;;;;;12.24;55.93;100349.94;5140361;27;20043;-74
2023/05/17 00:51:44;;;;;;;0.10;0.10;;;;;;;12.23;56.20;100349.13;5118008;27;20051;-74
2023/05/17 00:54:12;;;;;;;0.20;0.13;;;;;;;12.17;56.14;100344.72;5125363;27;20487;-74
2023/05/17 00:56:38;;;;;;;0.25;0.15;;;;;;;12.18;56.27;100346.41;5127260;27;20051;-73
2023/05/17 00:59:05;;;;;;;0.10;0.10;;;;;;;12.15;56.48;100353.22;5138524;27;20050;-74
2023/05/17 01:01:34;;;;;;;0.10;0.10;;;;;;;12.10;56.63;100352.41;5100859;28;20075;-74
2023/05/17 01:04:02;;;;;;;0.10;0.10;;;;;;;12.09;57.09;100356.22;5125929;27;20522;-72
2023/05/17 01:06:28;;;;;;;0.10;0.10;;;;;;;12.05;57.20;100356.78;5123030;27;20509;-72
2023/05/17 01:08:54;;;;;;;0.10;0.10;;;;;;;12.00;57.34;100356.72;5125225;27;20058;-72
2023/05/17 01:11:34;;;;;;;0.20;0.20;;;;;;;11.96;57.67;100358.38;5105991;27;20050;-72
2023/05/17 01:14:21;;;;;;;0.10;0.10;;;;;;;11.92;58.23;100358.06;5116162;27;20050;-72
2023/05/17 01:16:55;;;;;;;0.10;0.10;;;;;;;11.89;58.40;100358.63;5118898;27;20062;-72
2023/05/17 01:19:44;;;;;;;0.10;0.10;;;;;;;11.83;58.22;100358.88;5088222;27;20467;-72
2023/05/17 01:22:14;;;;;;;;;;;;;;;11.78;58.69;100371.47;5090698;27;20070;-74
2023/05/17 01:24:51;;;;;;;0.10;0.10;;;;;;;11.73;58.66;100365.16;5125362;27;20396;-74
2023/05/17 01:27:20;;;;;;;0.10;0.10;;;;;;;11.66;58.85;100365.41;5112478;27;20038;-74
2023/05/17 01:29:49;;;;;;;0.10;0.10;;;;;;;11.64;58.96;100364.84;5109581;27;20099;-74
2023/05/17 01:32:17;;;;;;;0.10;0.10;;;;;;;11.61;59.47;100368.94;5129824;27;20107;-75
2023/05/17 01:34:43;;;;;;;0.13;0.10;;;;;;;11.59;59.72;100368.38;5124121;27;20050;-74
2023/05/17 01:37:10;;;;;;;0.10;0.10;;;;;;;11.56;59.99;100368.13;5118328;27;20091;-74
2023/05/17 01:39:36;;;;;;;0.10;0.10;;;;;;;11.56;59.83;100371.66;5091765;28;20400;-75
2023/05/17 01:42:09;;;;;;;0.10;0.10;;;;;;;11.57;60.04;100376.03;5131161;27;20308;-75
2023/05/17 01:44:44;;;;;;;0.15;0.15;;;;;;;11.59;59.97;100373.06;5120111;27;20170;-72
2023/05/17 01:47:15;;;;;;;0.20;0.20;;;;;;;11.65;59.98;100382.13;5124548;27;20050;-73
2023/05/17 01:49:48;;;;;;;0.20;0.20;;;;;;;11.65;59.49;100382.13;5119784;27;20126;-72
2023/05/17 01:52:23;;;;;;;0.10;0.10;;;;;;;11.73;59.65;100384.31;5086338;27;20059;-72
2023/05/17 01:54:58;;;;;;;0.10;0.10;;;;;;;11.77;59.17;100372.56;5116446;27;20402;-72
2023/05/17 01:57:28;;;;;;;0.10;0.10;;;;;;;11.79;59.39;100383.25;5125050;27;20234;-72
2023/05/17 02:00:01;;;;;;;0.10;0.10;;;;;;;11.86;59.47;100385.72;5105724;27;20096;-73
2023/05/17 02:02:31;;;;;;;0.10;0.10;;;;;;;11.87;59.38;100384.66;5081572;28;20085;-72
2023/05/17 02:04:58;;;;;;;0.10;0.10;;;;;;;11.86;59.28;100383.81;5127144;27;20047;-72
2023/05/17 02:07:24;;;;;;;0.10;0.10;;;;;;;11.86;59.49;100391.22;5125291;27;20054;-72
2023/05/17 02:09:50;;;;;;;0.43;0.10;;;;;;;11.87;59.55;100377.25;5105222;27;20136;-72
2023/05/17 02:12:16;;;;;;;0.10;0.10;;;;;;;11.89;59.54;100383.28;5124210;27;20502;-72
2023/05/17 02:14:43;;;;;;;0.10;0.10;;;;;;;11.89;59.84;100375.06;5124067;27;20055;-72
2023/05/17 02:17:10;;;;;;;0.20;0.20;;;;;;;11.91;59.76;100391.25;5095792;28;20055;-73
2023/05/17 02:19:37;;;;;;;0.10;0.10;;;;;;;11.93;59.67;100391.78;5097302;28;20044;-72
2023/05/17 02:22:03;;;;;;;0.10;0.10;;;;;;;11.97;59.90;100383.88;5084679;28;20105;-72
2023/05/17 02:24:29;;;;;;;0.10;0.10;;;;;;;12.04;59.81;100398.16;5114834;27;20093;-72
2023/05/17 02:26:55;;;;;;;0.10;0.10;;;;;;;12.07;59.65;100388.56;5099162;28;20051;-72
2023/05/17 02:29:24;;;;;;;0.20;0.20;;;;;;;12.10;59.40;100391.59;5068169;28;20051;-72
2023/05/17 02:31:51;;;;;;;0.10;0.10;;;;;;;12.20;59.17;100396.28;5106483;28;20055;-72
2023/05/17 02:34:19;;;;;;;0.20;0.20;;;;;;;12.26;58.97;100397.94;5069229;28;20048;-72
2023/05/17 02:36:49;;;;;;;0.10;0.10;;;;;;;12.27;59.04;100394.09;5103216;28;20040;-72
2023/05/17 02:39:15;;;;;;;0.10;0.10;;;;;;;12.32;59.17;100399.56;5102924;28;20051;-73
2023/05/17 02:41:41;;;;;;;0.20;0.20;;;;;;;12.40;58.82;100394.66;5102876;28;20532;-74
2023/05/17 02:44:08;;;;;;;0.17;0.17;;;;;;;12.48;58.88;100405.91;5116124;27;20585;-74
2023/05/17 02:46:34;;;;;;;0.13;0.13;;;;;;;12.54;58.60;100406.75;5122487;28;20079;-74
2023/05/17 02:49:00;;;;;;;0.20;0.20;;;;;;;12.58;58.69;100399.59;5103021;28;20075;-74
2023/05/17 02:51:28;;;;;;;0.20;0.20;;;;;;;12.62;58.74;100403.44;5120782;28;20050;-74
2023/05/17 02:53:55;;;;;;;0.20;0.20;;;;;;;12.69;58.32;100408.66;5125731;27;20071;-74
2023/05/17 02:56:21;;;;;;;0.20;0.20;;;;;;;12.71;58.29;100409.19;5120078;27;20054;-74
2023/05/17 02:58:48;;;;;;;0.10;0.10;;;;;;;12.75;57.83;100412.22;5108554;28;20048;-74
2023/05/17 03:01:14;;;;;;;0.10;0.10;;;;;;;12.75;58.18;100410.31;5120754;28;20413;-74
2023/05/17 03:03:40;;;;;;;0.10;0.10;;;;;;;12.85;58.01;100405.91;5116671;27;20073;-73
2023/05/17 03:06:07;;;;;;;0.20;0.20;;;;;;;12.89;57.82;100412.53;5104510;28;20048;-74
2023/05/17 03:08:35;;;;;;;0.10;0.10;;;;;;;12.93;57.83;100410.03;5099437;28;20058;-74
2023/05/17 03:11:02;;;;;;;0.10;0.10;;;;;;;12.99;57.78;100414.44;5087821;28;20384;-74
2023/05/17 03:13:29;;;;;;;0.15;0.15;;;;;;;13.04;57.48;100418.00;5102028;28;20047;-74
2023/05/17 03:15:55;;;;;;;0.17;0.17;;;;;;;13.09;57.38;100421.81;5087452;28;20075;-74
2023/05/17 03:18:21;;;;;;;0.20;0.20;;;;;;;13.12;57.26;100422.09;5087244;27;20070;-74
2023/05/17 03:20:48;;;;;;;0.20;0.20;;;;;;;13.14;57.18;100408.91;5115877;27;20046;-74
2023/05/17 03:23:14;;;;;;;0.10;0.10;;;;;;;13.17;57.13;100410.25;5103879;28;20083;-74
2023/05/17 03:26:00;;;;;;;0.20;0.20;;;;;;;13.25;56.88;100414.38;5084446;27;20047;-74
2023/05/17 03:28:29;;;;;;;0.20;0.20;;;;;;;13.27;56.65;100418.50;5125945;27;20050;-72
2023/05/17 03:30:55;;;;;;;0.20;0.20;;;;;;;13.29;56.38;100419.03;5134638;27;20043;-74
2023/05/17 03:33:22;;;;;;;0.10;0.10;;;;;;;13.30;56.44;100419.88;5081801;27;20043;-75
2023/05/17 03:35:48;;;;;;;0.20;0.20;;;;;;;13.37;56.66;100420.38;5094441;28;20047;-74
2023/05/17 03:38:14;;;;;;;0.20;0.20;;;;;;;13.43;56.38;100418.44;5086157;27;20043;-74
2023/05/17 03:40:41;;;;;;;0.30;0.22;;;;;;;13.55;56.25;100426.41;5086668;27;20145;-75
2023/05/17 03:43:09;;;;;;;0.20;0.20;;;;;;;13.63;56.07;100427.75;5109032;27;20066;-74
2023/05/17 03:45:36;;;;;;;0.20;0.20;;;;;;;13.69;55.93;100426.66;5110248;27;20055;-74
2023/05/17 03:48:02;;;;;;;0.20;0.20;;;;;;;13.75;55.65;100426.34;5089519;27;20052;-74
2023/05/17 03:50:31;;;;;;;0.20;0.20;;;;;;;13.85;55.52;100424.66;5106379;27;20104;-74
2023/05/17 03:52:57;;;;;;;0.20;0.20;;;;;;;13.94;55.62;100428.47;5091091;27;20460;-74
2023/05/17 03:55:24;;;;;;;0.20;0.20;;;;;;;14.03;55.46;100429.50;5106752;27;20123;-74
2023/05/17 03:57:50;;;;;;;0.35;0.20;;;;;;;14.12;55.07;100428.94;5132250;27;20296;-74
2023/05/17 04:00:22;;;;;;;0.20;0.20;;;;;;;14.22;54.67;100426.13;5124571;27;20047;-74
2023/05/17 04:02:49;;;;;;;0.20;0.20;;;;;;;14.33;54.12;100426.88;5125531;27;20039;-72
2023/05/17 04:05:17;;;;;;;0.20;0.20;;;;;;;14.38;52.85;100426.84;5092900;28;20084;-72
2023/05/17 04:07:45;;;;;;;0.28;0.28;;;;;;;14.45;52.61;100429.28;5094662;27;20442;-72
2023/05/17 04:10:12;;;;;;;0.32;0.30;;;;;;;14.53;52.63;100433.34;5106746;27;20421;-72
2023/05/17 04:12:39;;;;;;;0.20;0.20;;;;;;;14.59;51.70;100437.69;5125527;27;20092;-73
2023/05/17 04:15:06;;;;;;;0.20;0.20;;;;;;;14.65;51.53;100444.00;5118661;27;20046;-73
2023/05/17 04:17:35;;;;;;;0.20;0.20;;;;;;;14.74;51.29;100443.13;5105331;27;20146;-74
2023/05/17 04:20:01;;;;;;;0.57;0.30;;;;;;;14.82;50.82;100441.69;5084695;27;20433;-73
2023/05/17 04:22:29;;;;;;;0.20;0.20;;;;;;;14.95;50.72;100451.22;5133358;27;20447;-73
2023/05/17 04:24:56;;;;;;;0.20;0.20;;;;;;;15.05;50.46;100447.56;5108634;27;20050;-72
2023/05/17 04:27:23;;;;;;;0.28;0.28;;;;;;;15.13;50.00;100448.88;5123905;27;20047;-74
2023/05/17 04:29:50;;;;;;;0.20;0.20;;;;;;;15.20;49.72;100446.59;5128464;27;20051;-74
2023/05/17 04:32:17;;;;;;;0.20;0.20;;;;;;;15.31;49.77;100453.63;5115643;27;20063;-75
2023/05/17 04:34:45;;;;;;;0.20;0.20;;;;;;;15.43;49.34;100452.44;5089616;28;20514;-75
2023/05/17 04:37:12;;;;;;;0.20;0.20;;;;;;;15.47;49.15;100453.47;4743512;27;9999728;-75
2023/05/17 04:39:41;;;;;;;0.20;0.20;;;;;;;15.54;49.02;100450.38;5119541;27;20055;-75
2023/05/17 04:42:08;;;;;;;0.20;0.20;;;;;;;15.57;48.96;100449.78;5101582;27;20047;-75
2023/05/17 04:44:38;;;;;;;0.28;0.28;;;;;;;15.67;48.05;100451.59;5106407;27;20495;-73
2023/05/17 04:47:05;;;;;;;0.20;0.20;;;;;;;15.69;48.19;100454.91;5122157;27;20070;-73
2023/05/17 04:49:32;;;;;;;0.20;0.20;;;;;;;15.76;48.38;100446.25;5103243;27;20399;-74
2023/05/17 04:51:59;;;;;;;0.20;0.20;;;;;;;15.89;48.18;100456.63;5120320;27;20065;-73
2023/05/17 04:54:26;;;;;;;0.20;0.20;;;;;;;15.98;47.68;100448.50;5126550;27;20248;-73
2023/05/17 04:56:52;;;;;;;0.20;0.20;;;;;;;16.04;47.51;100452.03;5109379;27;20352;-73
2023/05/17 04:59:38;;;;;;;0.20;0.20;;;;;;;16.10;47.08;100454.41;5093917;27;20079;-73
2023/05/17 05:02:05;;;;;;;0.30;0.30;;;;;;;16.15;46.96;100457.09;5112291;27;20138;-73
2023/05/17 05:04:31;;;;;;;;;;;;;;;16.23;47.05;100461.13;5106582;27;20050;-73
2023/05/17 05:06:59;;;;;;;0.20;0.20;;;;;;;16.29;46.73;100454.44;5106215;27;19923;-73
2023/05/17 05:09:25;;;;;;;0.55;0.30;;;;;;;16.35;47.04;100457.94;5107744;27;20161;-73
2023/05/17 05:11:52;;;;;;;0.20;0.20;;;;;;;16.48;46.43;100461.91;5118598;27;20046;-73
2023/05/17 05:14:18;;;;;;;0.22;0.22;;;;;;;16.49;46.53;100446.97;5093367;27;20041;-73
2023/05/17 05:16:45;;;;;;;0.30;0.30;;;;;;;16.61;46.26;100460.31;5132534;27;20050;-74
2023/05/17 05:19:11;;;;;;;0.20;0.20;;;;;;;16.68;46.01;100459.94;5127270;27;20043;-73
2023/05/17 05:21:37;;;;;;;0.20;0.20;;;;;;;16.69;45.79;100447.78;5145745;27;20046;-73
2023/05/17 05:24:08;;;;;;;0.30;0.30;;;;;;;16.71;45.83;100462.13;5103752;27;20040;-73
2023/05/17 05:26:34;;;;;;;0.20;0.20;;;;;;;16.78;45.95;100465.31;5071473;28;20455;-74
2023/05/17 05:29:02;;;;;;;0.20;0.20;;;;;;;16.89;45.42;100462.41;5123033;27;20058;-74
2023/05/17 05:31:30;;;;;;;0.43;0.30;;;;;;;16.99;44.96;100467.75;5090568;27;20498;-74
2023/05/17 05:33:59;;;;;;;0.30;0.30;;;;;;;17.08;44.73;100465.13;5108731;27;20046;-73
2023/05/17 05:36:26;;;;;;;0.20;0.20;;;;;;;17.12;44.50;100453.16;5096826;27;20404;-74
2023/05/17 05:38:53;;;;;;;0.20;0.20;;;;;;;17.23;44.65;100466.81;5113373;27;20047;-74
2023/05/17 05:41:22;;;;;;;0.30;0.30;;;;;;;17.28;44.65;100453.72;5093359;27;20042;-74
2023/05/17 05:43:48;;;;;;;0.30;0.30;;;;;;;17.32;44.55;100455.88;5134176;27;20039;-74
2023/05/17 05:46:14;;;;;;;0.28;0.28;;;;;;;17.38;44.59;100460.19;5091880;27;20511;-74
2023/05/17 05:48:42;;;;;;;0.45;0.30;;;;;;;17.46;43.45;100458.66;5121458;27;20050;-73
2023/05/17 05:51:09;;;;;;;0.30;0.30;;;;;;;17.47;43.63;100455.59;5108458;27;20039;-74
2023/05/17 05:53:39;;;;;;;0.30;0.30;;;;;;;17.52;43.80;100455.50;5076341;28;20070;-74
2023/05/17 05:56:05;;;;;;;0.30;0.30;;;;;;;17.62;43.38;100459.19;5077804;27;20105;-74
2023/05/17 05:58:33;;;;;;;0.30;0.30;;;;;;;17.71;41.95;100451.81;5095185;28;20047;-73
2023/05/17 06:01:01;;;;;;;0.25;0.25;;;;;;;17.75;42.80;100458.38;5076839;27;20124;-73
2023/05/17 06:03:28;;;;;;;0.30;0.30;;;;;;;17.83;42.81;100456.84;5114562;27;20506;-73
2023/05/17 06:05:55;;;;;;;0.30;0.30;;;;;;;17.85;43.08;100465.66;5136179;27;20039;-73
2023/05/17 06:08:21;;;;;;;0.30;0.30;;;;;;;18.03;42.95;100463.09;5145495;27;20102;-73
2023/05/17 06:10:48;;;;;;;0.30;0.30;;;;;;;18.21;41.80;100461.34;5144876;27;20039;-73
2023/05/17 06:13:14;;;;;;;0.30;0.30;;;;;;;18.33;41.01;100460.78;5105273;27;20040;-73
2023/05/17 06:15:42;;;;;;;0.30;0.30;;;;;;;18.52;40.97;100464.22;5116315;27;20469;-72
2023/05/17 06:18:08;;;;;;;0.30;0.30;;;;;;;18.76;40.61;100456.75;5081756;28;20049;-73
2023/05/17 06:20:34;;;;;;;0.30;0.30;;;;;;;18.95;39.96;100457.38;5116815;27;20377;-73
2023/05/17 06:23:01;;;;;;;0.73;0.40;;;;;;;19.00;39.69;100464.78;5124138;27;20128;-73
2023/05/17 06:25:27;;;;;;;0.30;0.30;;;;;;;19.07;40.13;100469.88;5083719;27;20047;-73
2023/05/17 06:27:53;;;;;;;0.38;0.38;;;;;;;19.25;39.48;100468.03;5111148;27;20131;-72
2023/05/17 06:30:19;;;;;;;0.30;0.30;;;;;;;19.44;39.11;100465.03;5126991;27;20062;-73
2023/05/17 06:32:47;;;;;;;0.40;0.40;;;;;;;19.54;38.68;100456.41;5102551;28;20047;-73
2023/05/17 06:35:13;;;;;;;0.32;0.32;;;;;;;19.64;38.81;100460.06;5125753;27;20166;-73
2023/05/17 06:37:40;;;;;;;0.30;0.30;;;;;;;19.68;38.49;100459.09;5124068;27;20049;-73
2023/05/17 06:40:07;;;;;;;0.30;0.30;;;;;;;19.80;38.17;100468.75;5128210;27;20417;-73
2023/05/17 06:42:34;;;;;;;0.35;0.35;;;;;;;19.90;36.98;100478.72;5093628;27;20049;-73
2023/05/17 06:45:01;;;;;;;0.40;0.40;;;;;;;19.91;36.12;100469.28;5105154;27;20048;-73
2023/05/17 06:47:29;;;;;;;0.30;0.30;;;;;;;19.83;36.00;100476.44;5105180;28;20052;-73
2023/05/17 06:49:56;;;;;;;0.40;0.40;;;;;;;19.82;35.74;100474.78;5139908;27;20054;-73
2023/05/17 06:52:23;;;;;;;0.40;0.40;;;;;;;19.82;36.08;100463.69;5126425;27;20047;-73
2023/05/17 06:54:49;;;;;;;0.30;0.30;;;;;;;19.88;35.70;100465.19;5131981;27;20047;-73
2023/05/17 06:57:15;;;;;;;0.30;0.30;;;;;;;19.96;35.17;100475.53;5120139;27;20040;-73
2023/05/17 06:59:41;;;;;;;0.43;0.40;;;;;;;19.97;34.81;100473.56;5123437;27;20047;-73
2023/05/17 07:02:08;;;;;;;0.30;0.30;;;;;;;19.92;34.69;100471.75;5115645;27;20053;-73
2023/05/17 07:04:34;;;;;;;0.35;0.35;;;;;;;19.95;35.06;100475.84;5123320;27;20052;-73
2023/05/17 07:07:02;;;;;;;0.40;0.40;;;;;;;20.10;35.10;100469.03;5126315;27;20043;-73
2023/05/17 07:09:28;;;;;;;0.30;0.30;;;;;;;20.33;34.86;100466.13;5089342;28;20542;-73
2023/05/17 07:11:54;;;;;;;0.40;0.40;;;;;;;20.56;34.48;100464.03;5125789;28;20511;-73
2023/05/17 07:14:20;;;;;;;0.30;0.30;;;;;;;20.81;34.09;100472.69;5106829;28;20051;-73
2023/05/17 07:16:48;;;;;;;0.40;0.40;;;;;;;20.85;33.13;100464.53;5126460;27;20142;-73
2023/05/17 07:19:14;;;;;;;0.30;0.30;;;;;;;20.81;33.41;100478.25;5109288;27;20100;-73
2023/05/17 07:21:40;;;;;;;0.37;0.37;;;;;;;20.86;32.64;100471.72;5110295;27;20562;-73
2023/05/17 07:24:08;;;;;;;0.30;0.30;;;;;;;20.81;32.53;100461.59;5127882;27;20138;-73
2023/05/17 07:26:35;;;;;;;0.40;0.40;;;;;;;20.71;32.52;100459.13;5127133;27;20842;-73
2023/05/17 07:29:01;;;;;;;0.40;0.40;;;;;;;20.63;33.10;100458.78;5107439;27;20054;-73
2023/05/17 07:31:27;;;;;;;0.30;0.30;;;;;;;20.75;33.09;100457.31;5127955;27;20082;-73
2023/05/17 07:33:53;;;;;;;0.32;0.32;;;;;;;20.92;32.69;100448.19;5128315;27;20133;-74
2023/05/17 07:36:19;;;;;;;0.30;0.30;;;;;;;21.11;32.09;100456.97;5105676;27;20047;-74
2023/05/17 07:38:45;;;;;;;0.40;0.40;;;;;;;21.15;31.22;100459.09;5098774;27;20579;-74
2023/05/17 07:41:15;;;;;;;0.30;0.30;;;;;;;21.00;31.49;100458.47;5112152;27;20116;-73
2023/05/17 07:43:42;;;;;;;0.40;0.40;;;;;;;20.94;31.69;100451.44;5105933;27;20043;-73
2023/05/17 07:46:09;;;;;;;0.82;0.30;;;;;;;21.06;31.88;100453.53;5111162;27;20047;-74
2023/05/17 07:48:35;;;;;;;0.35;0.35;;;;;;;21.13;31.69;100461.38;5082945;27;20043;-73
2023/05/17 07:51:01;;;;;;;0.30;0.30;;;;;;;21.25;31.11;100462.31;5118234;27;20172;-74
2023/05/17 07:53:28;;;;;;;0.30;0.30;;;;;;;21.35;30.68;100457.56;5083976;27;20065;-74
2023/05/17 07:55:54;;;;;;;0.40;0.40;;;;;;;21.50;31.06;100445.06;5120665;27;20053;-74
2023/05/17 07:58:21;;;;;;;0.40;0.40;;;;;;;21.74;30.17;100454.81;5122180;27;20044;-73
2023/05/17 08:00:48;;;;;;;0.40;0.40;;;;;;;21.82;29.94;100465.06;5104244;27;20120;-72
2023/05/17 08:03:14;;;;;;;0.30;0.30;;;;;;;21.80;30.14;100447.91;5082312;27;20050;-73
2023/05/17 08:05:40;;;;;;;0.40;0.40;;;;;;;22.06;29.67;100444.94;5120716;27;20039;-73
2023/05/17 08:08:07;;;;;;;0.40;0.40;;;;;;;22.34;29.45;100446.44;5095529;27;20043;-73
2023/05/17 08:10:36;;;;;;;0.40;0.40;;;;;;;22.74;29.29;100437.56;5124974;27;20039;-74
2023/05/17 08:13:03;;;;;;;0.40;0.40;;;;;;;23.21;28.85;100438.41;5125814;27;20047;-73
2023/05/17 08:15:31;;;;;;;0.40;0.40;;;;;;;23.37;28.40;100433.81;5125157;27;20472;-73
2023/05/17 08:17:57;;;;;;;0.40;0.40;;;;;;;23.99;27.13;100446.16;5088592;27;20452;-73
2023/05/17 08:20:23;;;;;;;0.40;0.40;;;;;;;24.01;27.26;100444.63;5119700;27;20083;-73
2023/05/17 08:22:49;;;;;;;0.40;0.40;;;;;;;24.05;26.80;100465.13;5120288;27;20525;-73
2023/05/17 08:25:16;;;;;;;0.40;0.40;;;;;;;23.91;27.30;100450.69;5118412;27;20092;-73
2023/05/17 08:27:42;;;;;;;0.53;0.50;;;;;;;24.07;26.93;100437.66;5122079;27;20602;-74
2023/05/17 08:30:09;;;;;;;0.45;0.45;;;;;;;24.21;26.81;100442.91;5106645;27;20055;-73
2023/05/17 08:32:37;;;;;;;0.50;0.50;;;;;;;24.37;26.90;100439.38;5125567;27;20039;-73
2023/05/17 08:35:04;;;;;;;0.50;0.50;;;;;;;24.34;26.33;100462.41;5126766;27;20470;-73
2023/05/17 08:37:30;;;;;;;0.50;0.50;;;;;;;24.34;26.36;100429.69;5122160;27;20071;-73
2023/05/17 08:39:56;;;;;;;0.50;0.50;;;;;;;24.63;26.00;100446.47;5124026;27;20058;-73
2023/05/17 08:42:26;;;;;;;0.50;0.50;;;;;;;24.82;25.60;100442.22;5104426;27;20043;-73
2023/05/17 08:44:53;;;;;;;0.50;0.50;;;;;;;25.01;25.29;100428.41;5078600;27;20042;-73
2023/05/17 08:47:28;;;;;;;;;;;;;;;25.37;24.64;100450.91;5096405;27;20187;-73
2023/05/17 08:49:59;;;;;;;0.50;0.50;;;;;;;25.68;24.66;100418.53;5097023;27;19930;-72
2023/05/17 08:52:30;;;;;;;0.60;0.60;;;;;;;25.96;24.57;100445.53;5072785;27;20153;-73
2023/05/17 08:54:56;;;;;;;0.50;0.50;;;;;;;25.82;24.82;100442.41;5077420;27;20039;-73
2023/05/17 08:57:25;;;;;;;0.50;0.50;;;;;;;25.87;24.58;100434.53;5100823;27;20050;-73
2023/05/17 08:59:52;;;;;;;0.60;0.60;;;;;;;25.90;24.59;100422.59;5113369;27;20426;-73
2023/05/17 09:02:19;;;;;;;0.60;0.60;;;;;;;26.36;24.53;100426.84;5083639;27;20047;-73
2023/05/17 09:04:46;;;;;;;0.57;0.57;;;;;;;26.73;23.56;100437.63;5139084;27;20482;-73
2023/05/17 09:07:29;;;;;;;0.60;0.60;;;;;;;26.73;23.42;100434.00;5107045;27;20054;-74
2023/05/17 09:09:55;;;;;;;0.60;0.60;;;;;;;26.82;23.53;100423.34;5128151;27;20050;-73
2023/05/17 09:12:21;;;;;;;0.60;0.60;;;;;;;26.89;23.52;100425.53;5109218;27;20494;-72
2023/05/17 09:14:48;;;;;;;0.60;0.60;;;;;;;27.17;23.12;100444.06;5117960;27;20143;-73
2023/05/17 09:17:16;;;;;;;0.60;0.60;;;;;;;27.42;22.67;100435.25;5109008;27;20055;-72
2023/05/17 09:19:44;;;;;;;0.70;0.70;;;;;;;27.51;22.51;100427.41;5108369;27;20055;-73
2023/05/17 09:22:13;;;;;;;0.70;0.70;;;;;;;27.35;22.51;100435.94;5125854;27;20046;-73
2023/05/17 09:24:41;;;;;;;1.05;0.70;;;;;;;27.60;22.27;100429.97;5126965;27;20062;-73
2023/05/17 09:27:08;;;;;;;0.80;0.80;;;;;;;27.82;21.89;100431.13;5134320;27;20141;-73
2023/05/17 09:29:35;;;;;;;0.70;0.70;;;;;;;28.01;21.84;100410.50;5124983;27;20042;-73
2023/05/17 09:32:15;;;;;;;0.70;0.70;;;;;;;27.56;22.00;100423.50;5093717;27;20054;-73
2023/05/17 09:34:44;;;;;;;0.80;0.80;;;;;;;27.53;22.58;100422.25;5087600;27;20099;-73
2023/05/17 09:37:13;;;;;;;0.77;0.77;;;;;;;27.89;22.14;100410.75;5122220;27;20505;-72
2023/05/17 09:39:41;;;;;;;0.80;0.80;;;;;;;28.15;21.92;100404.31;5113594;27;20115;-73
2023/05/17 09:42:08;;;;;;;0.80;0.80;;;;;;;28.55;21.17;100407.63;5141808;27;20443;-74
2023/05/17 09:44:46;;;;;;;1.00;0.90;;;;;;;28.49;20.97;100397.94;5132685;27;20035;-73
2023/05/17 09:47:22;;;;;;;0.82;0.82;;;;;;;28.84;20.72;100410.78;5127075;27;20047;-73
2023/05/17 09:49:48;;;;;;;0.70;0.70;;;;;;;28.91;20.87;100415.69;5144637;27;20122;-72
2023/05/17 09:52:18;;;;;;;0.90;0.90;;;;;;;28.68;21.05;100415.81;5126531;27;20047;-72
2023/05/17 09:54:52;;;;;;;0.90;0.90;;;;;;;28.59;21.23;100390.81;5102333;27;20047;-73
2023/05/17 09:57:18;;;;;;;1.00;1.00;;;;;;;29.09;20.65;100409.41;5125285;27;20390;-73
2023/05/17 09:59:46;;;;;;;0.90;0.90;;;;;;;29.52;20.31;100386.47;5126184;27;20699;-73
2023/05/17 10:02:20;;;;;;;1.00;1.00;;;;;;;29.94;20.06;100384.31;5144096;27;20057;-72
2023/05/17 10:04:49;;;;;;;1.10;1.10;;;;;;;30.26;19.45;100378.88;5100068;27;20057;-72
2023/05/17 10:07:18;;;;;;;1.00;1.00;;;;;;;30.59;19.41;100378.16;5131416;27;20043;-72
2023/05/17 10:09:45;;;;;;;1.00;1.00;;;;;;;30.11;19.50;100382.84;5120943;27;20074;-73
2023/05/17 10:12:16;;;;;;;1.00;1.00;;;;;;;30.19;19.40;100395.75;5123401;27;20133;-73
2023/05/17 10:14:43;;;;;;;1.02;1.02;;;;;;;30.17;19.04;100386.88;5134933;27;20051;-73
2023/05/17 10:17:10;;;;;;;1.00;1.00;;;;;;;30.00;19.13;100385.56;5139970;27;20143;-73
2023/05/17 10:19:37;;;;;;;1.10;1.10;;;;;;;30.26;19.03;100372.41;5134102;27;20137;-73
2023/05/17 10:22:05;;;;;;;1.10;1.10;;;;;;;31.00;18.86;100375.06;5090735;27;20047;-74
2023/05/17 10:24:33;;;;;;;1.10;1.10;;;;;;;31.48;18.33;100387.19;5123884;27;20039;-73
2023/05/17 10:26:59;;;;;;;1.10;1.10;;;;;;;31.42;18.10;100369.81;5099175;27;20067;-73
2023/05/17 10:29:30;;;;;;;1.20;1.20;;;;;;;31.59;17.78;100376.66;5107096;27;20146;-73
2023/05/17 10:31:57;;;;;;;1.10;1.10;;;;;;;32.10;17.36;100366.03;5125114;27;20583;-73
2023/05/17 10:34:26;;;;;;;1.30;1.20;;;;;;;32.46;17.38;100372.78;5131569;27;20069;-73
2023/05/17 10:36:54;;;;;;;1.20;1.20;;;;;;;32.04;17.08;100361.22;5131783;27;20053;-73
2023/05/17 10:39:21;;;;;;;1.10;1.10;;;;;;;31.61;17.92;100374.25;5105993;28;20039;-73
2023/05/17 10:41:48;;;;;;;;;;;;;;;31.35;18.38;100364.16;5099905;27;20050;-72
2023/05/17 10:44:16;;;;;;;1.20;1.20;;;;;;;31.51;18.18;100364.56;5105445;28;20337;-73
2023/05/17 10:46:53;;;;;;;1.20;1.20;;;;;;;32.28;17.79;100365.16;5124518;27;20096;-73
2023/05/17 10:49:19;;;;;;;1.30;1.20;;;;;;;32.74;17.29;100362.50;5109680;27;20082;-73
2023/05/17 10:51:45;;;;;;;1.30;1.20;;;;;;;33.11;16.93;100358.22;5125994;27;20477;-73
2023/05/17 10:54:17;;;;;;;1.38;1.27;;;;;;;33.01;16.15;100376.09;5145927;27;20050;-74
2023/05/17 10:56:47;;;;;;;1.30;1.20;;;;;;;33.22;15.94;100356.09;5131804;27;20047;-73
2023/05/17 10:59:20;;;;;;;1.40;1.30;;;;;;;34.31;14.96;100365.50;5131338;27;20123;-74
2023/05/17 11:02:02;;;;;;;1.30;1.20;;;;;;;33.93;15.23;100366.34;5111961;27;20047;-73
2023/05/17 11:04:35;;;;;;;1.30;1.20;;;;;;;33.02;16.40;100367.19;5101200;27;20089;-73
2023/05/17 11:07:28;;;;;;;1.40;1.30;;;;;;;33.24;16.34;100350.00;5129373;27;20099;-73
2023/05/17 11:10:05;;;;;;;1.30;1.20;;;;;;;33.29;16.43;100360.88;5106907;27;20581;-73
2023/05/17 11:12:34;;;;;;;1.40;1.30;;;;;;;32.61;16.56;100340.34;5091539;27;20039;-73
2023/05/17 11:15:05;;;;;;;1.40;1.30;;;;;;;32.65;16.60;100371.47;5102290;28;20048;-73
2023/05/17 11:17:53;;;;;;;1.40;1.30;;;;;;;32.87;16.71;100351.50;5145245;27;20110;-74
2023/05/17 11:20:30;;;;;;;1.40;1.30;;;;;;;32.99;16.13;100348.19;5137674;27;20421;-75
2023/05/17 11:22:58;;;;;;;1.40;1.30;;;;;;;33.03;16.50;100362.31;5128934;27;20039;-73
2023/05/17 11:25:28;;;;;;;1.40;1.30;;;;;;;33.14;16.62;100357.38;5123332;27;21369;-74
2023/05/17 11:27:55;;;;;;;1.40;1.30;;;;;;;32.94;16.44;100343.81;5127219;27;20551;-73
2023/05/17 11:30:25;;;;;;;1.40;1.30;;;;;;;33.53;15.91;100341.28;5126439;27;20055;-73